sensor_id;sensor_type;location;lat;lon;timestamp;pressure;altitude;pressure_sealevel;temperature;humidity
61880;BME280;47817;52.798;27.544;2023-08-06T00:00:21;1016.9;;;26.1;64.9
61880;BME280;47817;52.798;27.544;2023-08-06T00:05:27;1016.9;;;26.1;65.2
61880;BME280;47817;52.798;27.544;2023-08-06T00:10:31;1016.9;;;26;66.1
61880;BME280;47817;52.798;27.544;2023-08-06T00:15:47;1016.9;;;25.8;67.3
61880;BME280;47817;52.798;27.544;2023-08-06T00:20:52;1016.8;;;25.8;67.9
61880;BME280;47817;52.798;27.544;2023-08-06T00:25:37;1016.8;;;25.7;67.6
61880;BME280;47817;52.798;27.544;2023-08-06T00:31:01;1016.7;;;25.5;68.3
61880;BME280;47817;52.798;27.544;2023-08-06T00:35:47;1016.7;;;25.5;68.6
61880;BME280;47817;52.798;27.544;2023-08-06T00:41:01;1016.7;;;25.4;68.9
61880;BME280;47817;52.798;27.544;2023-08-06T00:45:33;1016.6;;;25.4;69.3
61880;BME280;47817;52.798;27.544;2023-08-06T00:51:01;1016.6;;;25.3;70
61880;BME280;47817;52.798;27.544;2023-08-06T00:55:51;1016.7;;;25.2;70.7
61880;BME280;47817;52.798;27.544;2023-08-06T01:00:43;1016.7;;;25.1;71.5
61880;BME280;47817;52.798;27.544;2023-08-06T01:05:21;1016.6;;;25;72.1
61880;BME280;47817;52.798;27.544;2023-08-06T01:10:19;1016.6;;;24.9;72.4
61880;BME280;47817;52.798;27.544;2023-08-06T01:16:01;1016.6;;;24.9;72.8
61880;BME280;47817;52.798;27.544;2023-08-06T01:20:21;1016.5;;;24.8;72.8
61880;BME280;47817;52.798;27.544;2023-08-06T01:25:15;1016.5;;;24.8;72.9
61880;BME280;47817;52.798;27.544;2023-08-06T01:31:01;1016.5;;;24.7;73.9
61880;BME280;47817;52.798;27.544;2023-08-06T01:35:43;1016.5;;;24.7;74.2
61880;BME280;47817;52.798;27.544;2023-08-06T01:40:21;1016.5;;;24.6;74.1
61880;BME280;47817;52.798;27.544;2023-08-06T01:45:15;1016.4;;;24.7;73.8
61880;BME280;47817;52.798;27.544;2023-08-06T01:51:01;1016.4;;;24.7;73.5
61880;BME280;47817;52.798;27.544;2023-08-06T01:55:51;1016.4;;;24.7;73.5
61880;BME280;47817;52.798;27.544;2023-08-06T02:00:37;1016.4;;;24.7;73.6
61880;BME280;47817;52.798;27.544;2023-08-06T02:05:21;1016.4;;;24.7;73.8
61880;BME280;47817;52.798;27.544;2023-08-06T02:10:59;1016.5;;;24.6;74
61880;BME280;47817;52.798;27.544;2023-08-06T02:15:15;1016.4;;;24.6;74.7
61880;BME280;47817;52.798;27.544;2023-08-06T02:20:15;1016.4;;;24.5;75.4
61880;BME280;47817;52.798;27.544;2023-08-06T02:25:59;1016.5;;;24.5;75.8
61880;BME280;47817;52.798;27.544;2023-08-06T02:30:51;1016.5;;;24.5;74.9
61880;BME280;47817;52.798;27.544;2023-08-06T02:35:51;1016.5;;;24.6;74.9
61880;BME280;47817;52.798;27.544;2023-08-06T02:40:15;1016.5;;;24.6;75.1
61880;BME280;47817;52.798;27.544;2023-08-06T02:45:15;1016.4;;;24.6;75.7
61880;BME280;47817;52.798;27.544;2023-08-06T02:50:27;1016.4;;;24.6;76.3
61880;BME280;47817;52.798;27.544;2023-08-06T02:55:27;1016.4;;;24.6;76.4
61880;BME280;47817;52.798;27.544;2023-08-06T03:01:01;1016.4;;;24.6;76.4
61880;BME280;47817;52.798;27.544;2023-08-06T03:05:17;1016.4;;;24.6;76.2
61880;BME280;47817;52.798;27.544;2023-08-06T03:11:01;1016.4;;;24.6;75.8
61880;BME280;47817;52.798;27.544;2023-08-06T03:15:29;1016.3;;;24.7;75.5
61880;BME280;47817;52.798;27.544;2023-08-06T03:20:15;1016.4;;;24.7;75.3
61880;BME280;47817;52.798;27.544;2023-08-06T03:25:21;1016.4;;;24.9;74.9
61880;BME280;47817;52.798;27.544;2023-08-06T03:30:33;1016.4;;;25;74.6
61880;BME280;47817;52.798;27.544;2023-08-06T03:35:37;1016.3;;;24.9;75.1
61880;BME280;47817;52.798;27.544;2023-08-06T03:40:47;1016.3;;;24.9;75.3
61880;BME280;47817;52.798;27.544;2023-08-06T03:45:25;1016.2;;;24.9;74.9
61880;BME280;47817;52.798;27.544;2023-08-06T03:50:15;1016.2;;;25;74.9
61880;BME280;47817;52.798;27.544;2023-08-06T03:55:29;1016.1;;;25;74.8
61880;BME280;47817;52.798;27.544;2023-08-06T04:01:01;1016.1;;;25;74.7
61880;BME280;47817;52.798;27.544;2023-08-06T04:06:01;1016;;;25.1;74.5
61880;BME280;47817;52.798;27.544;2023-08-06T04:10:21;1016;;;25.1;74.5
61880;BME280;47817;52.798;27.544;2023-08-06T04:15:33;1015.9;;;25.2;74.7
61880;BME280;47817;52.798;27.544;2023-08-06T04:20:59;1015.8;;;25.3;74.7
61880;BME280;47817;52.798;27.544;2023-08-06T04:25:31;1015.7;;;25.5;74.2
61880;BME280;47817;52.798;27.544;2023-08-06T04:30:23;1015.7;;;25.7;73.9
61880;BME280;47817;52.798;27.544;2023-08-06T04:35:43;1015.7;;;25.8;73.1
61880;BME280;47817;52.798;27.544;2023-08-06T04:41:01;1015.6;;;25.8;73
61880;BME280;47817;52.798;27.544;2023-08-06T04:45:51;1015.6;;;25.9;72.9
61880;BME280;47817;52.798;27.544;2023-08-06T04:50:23;1015.6;;;25.9;72.8
61880;BME280;47817;52.798;27.544;2023-08-06T04:56:01;1015.5;;;26;72.6
61880;BME280;47817;52.798;27.544;2023-08-06T05:00:21;1015.4;;;26.2;72.3
61880;BME280;47817;52.798;27.544;2023-08-06T05:05:15;1015.4;;;26.3;71.8
61880;BME280;47817;52.798;27.544;2023-08-06T05:10:35;1015.4;;;26.3;71.7
61880;BME280;47817;52.798;27.544;2023-08-06T05:15:17;1015.3;;;26.5;71.3
61880;BME280;47817;52.798;27.544;2023-08-06T05:20:49;1015.3;;;26.6;70.7
61880;BME280;47817;52.798;27.544;2023-08-06T05:25:35;1015.3;;;26.7;70.5
61880;BME280;47817;52.798;27.544;2023-08-06T05:31:02;1015.2;;;26.7;70.3
61880;BME280;47817;52.798;27.544;2023-08-06T05:35:41;1015.2;;;26.9;70
61880;BME280;47817;52.798;27.544;2023-08-06T05:40:59;1015.1;;;27.2;69.3
61880;BME280;47817;52.798;27.544;2023-08-06T05:45:27;1015.1;;;27.8;67.9
61880;BME280;47817;52.798;27.544;2023-08-06T05:51:01;1015;;;28.4;66.3
61880;BME280;47817;52.798;27.544;2023-08-06T05:56:01;1015;;;28.4;65.5
61880;BME280;47817;52.798;27.544;2023-08-06T06:01:01;1014.9;;;28.4;64.9
61880;BME280;47817;52.798;27.544;2023-08-06T06:05:27;1014.9;;;28.4;64.8
61880;BME280;47817;52.798;27.544;2023-08-06T06:10:23;1014.8;;;28.4;64.6
61880;BME280;47817;52.798;27.544;2023-08-06T06:15:53;1014.7;;;28.6;64.1
61880;BME280;47817;52.798;27.544;2023-08-06T06:20:51;1014.7;;;28.7;63.7
61880;BME280;47817;52.798;27.544;2023-08-06T06:25:47;1014.6;;;28.8;63.4
61880;BME280;47817;52.798;27.544;2023-08-06T06:30:15;1014.6;;;28.8;63.2
61880;BME280;47817;52.798;27.544;2023-08-06T06:36:01;1014.6;;;29;62.8
61880;BME280;47817;52.798;27.544;2023-08-06T06:40:21;1014.5;;;29.1;62.2
61880;BME280;47817;52.798;27.544;2023-08-06T06:45:27;1014.5;;;29.2;61.7
61880;BME280;47817;52.798;27.544;2023-08-06T06:50:35;1014.4;;;29.4;60.9
61880;BME280;47817;52.798;27.544;2023-08-06T06:55:51;1014.4;;;29.8;59.4
61880;BME280;47817;52.798;27.544;2023-08-06T07:00:37;1014.4;;;30.2;58.2
61880;BME280;47817;52.798;27.544;2023-08-06T07:05:29;1014.4;;;30.3;57.3
61880;BME280;47817;52.798;27.544;2023-08-06T07:10:21;1014.4;;;30.3;57.2
61880;BME280;47817;52.798;27.544;2023-08-06T07:15:21;1014.4;;;30.4;57
61880;BME280;47817;52.798;27.544;2023-08-06T07:20:27;1014.3;;;30.3;57
61880;BME280;47817;52.798;27.544;2023-08-06T07:26:01;1014.3;;;30.2;57.1
61880;BME280;47817;52.798;27.544;2023-08-06T07:30:23;1014.2;;;30.9;55.6
61880;BME280;47817;52.798;27.544;2023-08-06T07:36:07;1014.1;;;31.3;54.5
61880;BME280;47817;52.798;27.544;2023-08-06T07:40:15;1014.1;;;31.3;54.5
61880;BME280;47817;52.798;27.544;2023-08-06T07:45:21;1014.1;;;31.3;54.3
61880;BME280;47817;52.798;27.544;2023-08-06T07:50:50;1014.1;;;31.2;53.5
61880;BME280;47817;52.798;27.544;2023-08-06T07:55:33;1014.1;;;31.2;52.8
61880;BME280;47817;52.798;27.544;2023-08-06T08:00:35;1014;;;31.3;52.6
61880;BME280;47817;52.798;27.544;2023-08-06T08:05:31;1013.9;;;31.4;52.4
61880;BME280;47817;52.798;27.544;2023-08-06T08:10:47;1013.9;;;31.4;51.5
61880;BME280;47817;52.798;27.544;2023-08-06T08:15:15;1013.9;;;31.6;51.6
61880;BME280;47817;52.798;27.544;2023-08-06T08:20:21;1013.8;;;31.7;51.4
61880;BME280;47817;52.798;27.544;2023-08-06T08:26:01;1013.8;;;31.9;50.8
61880;BME280;47817;52.798;27.544;2023-08-06T08:31:01;1013.8;;;31.9;50.1
61880;BME280;47817;52.798;27.544;2023-08-06T08:35:29;1013.8;;;32.1;50.1
61880;BME280;47817;52.798;27.544;2023-08-06T08:40:17;1013.7;;;32.4;49.8
61880;BME280;47817;52.798;27.544;2023-08-06T08:45:59;1013.7;;;32.6;49.2
61880;BME280;47817;52.798;27.544;2023-08-06T08:50:15;1013.7;;;32.6;48.6
61880;BME280;47817;52.798;27.544;2023-08-06T08:55:21;1013.6;;;32.7;48.1
61880;BME280;47817;52.798;27.544;2023-08-06T09:00:43;1013.4;;;33;47.8
61880;BME280;47817;52.798;27.544;2023-08-06T09:06:01;1013.4;;;33.2;47.5
61880;BME280;47817;52.798;27.544;2023-08-06T09:11:01;1013.4;;;33.3;47.4
61880;BME280;47817;52.798;27.544;2023-08-06T09:15:29;1013.3;;;33.5;46.7
61880;BME280;47817;52.798;27.544;2023-08-06T09:21:01;1013.2;;;33.5;46.5
61880;BME280;47817;52.798;27.544;2023-08-06T09:25:31;1013.2;;;33.8;46.2
61880;BME280;47817;52.798;27.544;2023-08-06T09:30:28;1013.1;;;34;45.3
61880;BME280;47817;52.798;27.544;2023-08-06T09:35:31;1013;;;34.2;44.6
61880;BME280;47817;52.798;27.544;2023-08-06T09:41:01;1012.9;;;34.3;44.1
61880;BME280;47817;52.798;27.544;2023-08-06T09:45:51;1012.9;;;34.4;44.4
61880;BME280;47817;52.798;27.544;2023-08-06T09:50:43;1012.8;;;34.5;44
61880;BME280;47817;52.798;27.544;2023-08-06T09:55:33;1012.7;;;34.6;43.8
61880;BME280;47817;52.798;27.544;2023-08-06T10:00:21;1012.6;;;34.7;43.5
61880;BME280;47817;52.798;27.544;2023-08-06T10:05:59;1012.5;;;34.8;43.4
61880;BME280;47817;52.798;27.544;2023-08-06T10:10:31;1012.4;;;34.9;43.4
61880;BME280;47817;52.798;27.544;2023-08-06T10:15:35;1012.3;;;35.2;43.2
61880;BME280;47817;52.798;27.544;2023-08-06T10:21:01;1012.2;;;35.2;42.8
61880;BME280;47817;52.798;27.544;2023-08-06T10:26:01;1012.1;;;35.4;42
61880;BME280;47817;52.798;27.544;2023-08-06T10:30:33;1012;;;35.4;41.3
61880;BME280;47817;52.798;27.544;2023-08-06T10:35:31;1011.9;;;35.3;41.3
61880;BME280;47817;52.798;27.544;2023-08-06T10:40:49;1011.8;;;35.5;41.3
61880;BME280;47817;52.798;27.544;2023-08-06T10:45:37;1011.6;;;35.8;41.2
61880;BME280;47817;52.798;27.544;2023-08-06T10:50:37;1011.5;;;35.9;40.4
61880;BME280;47817;52.798;27.544;2023-08-06T10:55:24;1011.5;;;35.7;39.9
61880;BME280;47817;52.798;27.544;2023-08-06T11:01:01;1011.4;;;35.9;39.9
61880;BME280;47817;52.798;27.544;2023-08-06T11:05:33;1011.3;;;36.1;39.8
61880;BME280;47817;52.798;27.544;2023-08-06T11:10:27;1011.2;;;36.3;39.6
61880;BME280;47817;52.798;27.544;2023-08-06T11:15:59;1011.1;;;36.4;38.9
61880;BME280;47817;52.798;27.544;2023-08-06T11:20:49;1011;;;36.7;38.6
61880;BME280;47817;52.798;27.544;2023-08-06T11:25:23;1011;;;36.7;38.2
61880;BME280;47817;52.798;27.544;2023-08-06T11:30:29;1011;;;36.8;38
61880;BME280;47817;52.798;27.544;2023-08-06T11:35:15;1010.9;;;37;37.6
61880;BME280;47817;52.798;27.544;2023-08-06T11:40:33;1010.8;;;37.1;36.9
61880;BME280;47817;52.798;27.544;2023-08-06T11:45:15;1010.7;;;37.2;36.7
61880;BME280;47817;52.798;27.544;2023-08-06T11:50:59;1010.7;;;37.3;36.2
61880;BME280;47817;52.798;27.544;2023-08-06T11:55:17;1010.6;;;37.2;36
61880;BME280;47817;52.798;27.544;2023-08-06T12:00:59;1010.5;;;37.4;35.7
61880;BME280;47817;52.798;27.544;2023-08-06T12:05:15;1010.4;;;37.6;35.2
61880;BME280;47817;52.798;27.544;2023-08-06T12:10:15;1010.4;;;37.5;34.9
61880;BME280;47817;52.798;27.544;2023-08-06T12:15:15;1010.3;;;37.6;35
61880;BME280;47817;52.798;27.544;2023-08-06T12:20:35;1010.3;;;37.7;35.1
61880;BME280;47817;52.798;27.544;2023-08-06T12:25:27;1010.2;;;37.8;34.8
61880;BME280;47817;52.798;27.544;2023-08-06T12:30:45;1010.1;;;37.9;34.5
61880;BME280;47817;52.798;27.544;2023-08-06T12:35:45;1010;;;38.2;34.3
61880;BME280;47817;52.798;27.544;2023-08-06T12:40:29;1009.8;;;38.5;33.9
61880;BME280;47817;52.798;27.544;2023-08-06T12:45:15;1009.8;;;38.6;33.6
61880;BME280;47817;52.798;27.544;2023-08-06T12:50:59;1009.7;;;38.7;33.3
61880;BME280;47817;52.798;27.544;2023-08-06T12:56:01;1009.7;;;39.1;32.7
61880;BME280;47817;52.798;27.544;2023-08-06T13:00:29;1009.6;;;40.6;30.8
61880;BME280;47817;52.798;27.544;2023-08-06T13:05:37;1009.5;;;42.1;29
61880;BME280;47817;52.798;27.544;2023-08-06T13:10:45;1009.4;;;43;28
61880;BME280;47817;52.798;27.544;2023-08-06T13:15:15;1009.3;;;44.2;26.8
61880;BME280;47817;52.798;27.544;2023-08-06T13:20:21;1009.3;;;45.4;25.6
61880;BME280;47817;52.798;27.544;2023-08-06T13:25:45;1009.2;;;45.7;25.2
61880;BME280;47817;52.798;27.544;2023-08-06T13:30:57;1009.1;;;46.4;24.2
61880;BME280;47817;52.798;27.544;2023-08-06T13:35:51;1009.1;;;47.1;23.4
61880;BME280;47817;52.798;27.544;2023-08-06T13:40:45;1009;;;47.7;22.2
61880;BME280;47817;52.798;27.544;2023-08-06T13:46:01;1008.9;;;48;21.6
61880;BME280;47817;52.798;27.544;2023-08-06T13:50:21;1008.8;;;48.9;20.9
61880;BME280;47817;52.798;27.544;2023-08-06T13:56:04;1008.8;;;49.7;20.3
61880;BME280;47817;52.798;27.544;2023-08-06T14:00:29;1008.8;;;49.9;19.8
61880;BME280;47817;52.798;27.544;2023-08-06T14:06:03;1008.6;;;49;20.4
61880;BME280;47817;52.798;27.544;2023-08-06T14:10:39;1008.6;;;49.8;19.8
61880;BME280;47817;52.798;27.544;2023-08-06T14:15:45;1008.5;;;49.4;20.1
61880;BME280;47817;52.798;27.544;2023-08-06T14:20:29;1008.5;;;50.5;19.3
61880;BME280;47817;52.798;27.544;2023-08-06T14:25:15;1008.5;;;51;18.8
61880;BME280;47817;52.798;27.544;2023-08-06T14:31:03;1008.5;;;51.3;18.5
61880;BME280;47817;52.798;27.544;2023-08-06T14:35:21;1008.4;;;51.3;18.4
61880;BME280;47817;52.798;27.544;2023-08-06T14:40:37;1008.4;;;51.5;18.1
61880;BME280;47817;52.798;27.544;2023-08-06T14:46:01;1008.4;;;51.4;17.9
61880;BME280;47817;52.798;27.544;2023-08-06T14:51:03;1008.4;;;51.2;17.9
61880;BME280;47817;52.798;27.544;2023-08-06T14:55:23;1008.4;;;51;17.8
61880;BME280;47817;52.798;27.544;2023-08-06T15:00:21;1008.4;;;50.5;18.2
61880;BME280;47817;52.798;27.544;2023-08-06T15:05:53;1008.4;;;50.6;18.2
61880;BME280;47817;52.798;27.544;2023-08-06T15:10:53;1008.4;;;50.9;18
61880;BME280;47817;52.798;27.544;2023-08-06T15:15:31;1008.4;;;51.2;17.9
61880;BME280;47817;52.798;27.544;2023-08-06T15:20:29;1008.4;;;51;18
61880;BME280;47817;52.798;27.544;2023-08-06T15:26:03;1008.3;;;51.2;17.8
61880;BME280;47817;52.798;27.544;2023-08-06T15:30:35;1008.3;;;51.1;17.8
61880;BME280;47817;52.798;27.544;2023-08-06T15:35:15;1008.3;;;50.9;17.9
61880;BME280;47817;52.798;27.544;2023-08-06T15:40:33;1008.3;;;51.2;17.6
61880;BME280;47817;52.798;27.544;2023-08-06T15:45:53;1008.2;;;51.1;17.7
61880;BME280;47817;52.798;27.544;2023-08-06T15:50:55;1008.2;;;51;17.8
61880;BME280;47817;52.798;27.544;2023-08-06T15:55:21;1008.2;;;51.2;17.8
61880;BME280;47817;52.798;27.544;2023-08-06T16:00:15;1008.2;;;51;17.9
61880;BME280;47817;52.798;27.544;2023-08-06T16:05:15;1008.2;;;50.8;17.9
61880;BME280;47817;52.798;27.544;2023-08-06T16:10:35;1008.1;;;50;18.2
61880;BME280;47817;52.798;27.544;2023-08-06T16:16:03;1008.1;;;49.6;18.6
61880;BME280;47817;52.798;27.544;2023-08-06T16:20:17;1008.1;;;49.3;19
61880;BME280;47817;52.798;27.544;2023-08-06T16:26:03;1008;;;48.8;19.3
61880;BME280;47817;52.798;27.544;2023-08-06T16:30:29;1008.1;;;48.4;19.7
61880;BME280;47817;52.798;27.544;2023-08-06T16:35:15;1008.1;;;48.1;20
61880;BME280;47817;52.798;27.544;2023-08-06T16:40:53;1008.1;;;47.5;20.6
61880;BME280;47817;52.798;27.544;2023-08-06T16:45:35;1008;;;46.3;21.7
61880;BME280;47817;52.798;27.544;2023-08-06T16:50:15;1008;;;46;22.2
61880;BME280;47817;52.798;27.544;2023-08-06T16:55:47;1008;;;45.5;22.8
61880;BME280;47817;52.798;27.544;2023-08-06T17:00:17;1007.9;;;44.8;23.6
61880;BME280;47817;52.798;27.544;2023-08-06T17:05:47;1007.9;;;44;24.2
61880;BME280;47817;52.798;27.544;2023-08-06T17:10:17;1007.8;;;43.2;25
61880;BME280;47817;52.798;27.544;2023-08-06T17:15:49;1007.8;;;42.2;26
61880;BME280;47817;52.798;27.544;2023-08-06T17:20:40;1007.7;;;40.9;27.6
61880;BME280;47817;52.798;27.544;2023-08-06T17:25:15;1007.7;;;39.6;29.4
61880;BME280;47817;52.798;27.544;2023-08-06T17:30:45;1007.8;;;38.3;31
61880;BME280;47817;52.798;27.544;2023-08-06T17:36:03;1007.7;;;36.7;33.3
61880;BME280;47817;52.798;27.544;2023-08-06T17:40:15;1007.7;;;35.6;34.9
61880;BME280;47817;52.798;27.544;2023-08-06T17:45:21;1007.6;;;34.8;35.7
61880;BME280;47817;52.798;27.544;2023-08-06T17:50:45;1007.7;;;34.1;36.6
61880;BME280;47817;52.798;27.544;2023-08-06T17:55:47;1007.7;;;33.5;37.5
61880;BME280;47817;52.798;27.544;2023-08-06T18:01:03;1007.6;;;33;38.4
61880;BME280;47817;52.798;27.544;2023-08-06T18:05:45;1007.6;;;32.7;39.1
61880;BME280;47817;52.798;27.544;2023-08-06T18:11:03;1007.6;;;32.3;41.2
61880;BME280;47817;52.798;27.544;2023-08-06T18:15:37;1007.7;;;32;41.8
61880;BME280;47817;52.798;27.544;2023-08-06T18:21:03;1007.6;;;31.9;42.2
61880;BME280;47817;52.798;27.544;2023-08-06T18:25:21;1007.5;;;31.8;41.8
61880;BME280;47817;52.798;27.544;2023-08-06T18:31:03;1007.5;;;31.6;42.2
61880;BME280;47817;52.798;27.544;2023-08-06T18:35:53;1007.4;;;31.5;42.6
61880;BME280;47817;52.798;27.544;2023-08-06T18:40:37;1007.4;;;31.4;42.9
61880;BME280;47817;52.798;27.544;2023-08-06T18:45:29;1007.4;;;31.3;43.1
61880;BME280;47817;52.798;27.544;2023-08-06T18:50:21;1007.3;;;31.2;43.8
61880;BME280;47817;52.798;27.544;2023-08-06T18:56:03;1007.3;;;31.1;44.6
61880;BME280;47817;52.798;27.544;2023-08-06T19:00:15;1007.2;;;31;45.2
61880;BME280;47817;52.798;27.544;2023-08-06T19:05:31;1007.1;;;30.9;45.8
61880;BME280;47817;52.798;27.544;2023-08-06T19:11:03;1007;;;30.9;45.2
61880;BME280;47817;52.798;27.544;2023-08-06T19:16:03;1007;;;30.8;45.5
61880;BME280;47817;52.798;27.544;2023-08-06T19:20:21;1007;;;30.7;46.5
61880;BME280;47817;52.798;27.544;2023-08-06T19:25:21;1006.9;;;30.6;46.9
61880;BME280;47817;52.798;27.544;2023-08-06T19:30:47;1006.9;;;30.5;47.5
61880;BME280;47817;52.798;27.544;2023-08-06T19:35:53;1006.8;;;30.4;47.7
61880;BME280;47817;52.798;27.544;2023-08-06T19:40:15;1006.8;;;30.3;48.2
61880;BME280;47817;52.798;27.544;2023-08-06T19:45:29;1006.7;;;30.2;48.3
61880;BME280;47817;52.798;27.544;2023-08-06T19:51:03;1006.6;;;30.2;48.4
61880;BME280;47817;52.798;27.544;2023-08-06T19:55:53;1006.5;;;30.1;48.4
61880;BME280;47817;52.798;27.544;2023-08-06T20:00:35;1006.5;;;30.1;48.6
61880;BME280;47817;52.798;27.544;2023-08-06T20:06:03;1006.4;;;30.1;48.8
61880;BME280;47817;52.798;27.544;2023-08-06T20:10:53;1006.4;;;30.1;48.9
61880;BME280;47817;52.798;27.544;2023-08-06T20:15:41;1006.4;;;30;49.6
61880;BME280;47817;52.798;27.544;2023-08-06T20:20:15;1006.3;;;30;49.8
61880;BME280;47817;52.798;27.544;2023-08-06T20:25:45;1006.2;;;30;49.9
61880;BME280;47817;52.798;27.544;2023-08-06T20:30:15;1006.1;;;30;50
61880;BME280;47817;52.798;27.544;2023-08-06T20:35:36;1006;;;30;50
61880;BME280;47817;52.798;27.544;2023-08-06T20:41:01;1006;;;30;50.4
61880;BME280;47817;52.798;27.544;2023-08-06T20:45:51;1005.9;;;30;50.9
61880;BME280;47817;52.798;27.544;2023-08-06T20:51:03;1005.8;;;29.9;51.1
61880;BME280;47817;52.798;27.544;2023-08-06T20:55:29;1005.7;;;29.9;51.2
61880;BME280;47817;52.798;27.544;2023-08-06T21:00:23;1005.6;;;29.9;51.2
61880;BME280;47817;52.798;27.544;2023-08-06T21:05:37;1005.6;;;29.9;51.2
61880;BME280;47817;52.798;27.544;2023-08-06T21:10:35;1005.6;;;29.9;51.2
61880;BME280;47817;52.798;27.544;2023-08-06T21:15:37;1005.6;;;29.9;51.3
61880;BME280;47817;52.798;27.544;2023-08-06T21:20:50;1005.5;;;29.8;51.8
61880;BME280;47817;52.798;27.544;2023-08-06T21:26:04;1005.5;;;29.7;51.9
61880;BME280;47817;52.798;27.544;2023-08-06T21:30:21;1005.4;;;29.7;52.2
61880;BME280;47817;52.798;27.544;2023-08-06T21:35:39;1005.4;;;29.5;52.2
61880;BME280;47817;52.798;27.544;2023-08-06T21:40:45;1005.4;;;29.5;52.4
61880;BME280;47817;52.798;27.544;2023-08-06T21:46:04;1005.4;;;29.4;52.4
61880;BME280;47817;52.798;27.544;2023-08-06T21:51:04;1005.4;;;29.4;52.5
61880;BME280;47817;52.798;27.544;2023-08-06T21:55:30;1005.3;;;29.3;52.6
61880;BME280;47817;52.798;27.544;2023-08-06T22:01:03;1005.2;;;29.3;52.6
61880;BME280;47817;52.798;27.544;2023-08-06T22:05:15;1005.2;;;29.3;52.9
61880;BME280;47817;52.798;27.544;2023-08-06T22:10:15;1005.1;;;29.2;53.3
61880;BME280;47817;52.798;27.544;2023-08-06T22:15:45;1005.1;;;29.2;53.4
61880;BME280;47817;52.798;27.544;2023-08-06T22:20:31;1005.3;;;29.3;53.1
61880;BME280;47817;52.798;27.544;2023-08-06T22:25:51;1005.2;;;29.3;53.1
61880;BME280;47817;52.798;27.544;2023-08-06T22:30:45;1005.5;;;29.3;53.2
61880;BME280;47817;52.798;27.544;2023-08-06T22:36:01;1005.4;;;29.3;53.6
61880;BME280;47817;52.798;27.544;2023-08-06T22:40:16;1005.6;;;29.2;54.5
61880;BME280;47817;52.798;27.544;2023-08-06T22:45:59;1005.4;;;29;55.9
61880;BME280;47817;52.798;27.544;2023-08-06T22:50:35;1005.3;;;28.8;57.5
61880;BME280;47817;52.798;27.544;2023-08-06T22:55:45;1005.1;;;28.5;58.6
61880;BME280;47817;52.798;27.544;2023-08-06T23:00:51;1005;;;28.3;59.8
61880;BME280;47817;52.798;27.544;2023-08-06T23:05:45;1004.9;;;28.2;60.7
61880;BME280;47817;52.798;27.544;2023-08-06T23:10:35;1004.7;;;28;61.5
61880;BME280;47817;52.798;27.544;2023-08-06T23:15:15;1004.8;;;27.9;62.1
61880;BME280;47817;52.798;27.544;2023-08-06T23:21:01;1004.8;;;27.8;62.6
61880;BME280;47817;52.798;27.544;2023-08-06T23:25:29;1004.8;;;27.6;64.4
61880;BME280;47817;52.798;27.544;2023-08-06T23:30:29;1004.9;;;27.5;65.8
61880;BME280;47817;52.798;27.544;2023-08-06T23:36:01;1005;;;27.4;67.3
61880;BME280;47817;52.798;27.544;2023-08-06T23:41:01;1005.2;;;27.3;67.4
61880;BME280;47817;52.798;27.544;2023-08-06T23:45:21;1005.3;;;27.4;66.5
61880;BME280;47817;52.798;27.544;2023-08-06T23:50:15;1005.3;;;27.5;66.4
61880;BME280;47817;52.798;27.544;2023-08-06T23:55:51;1005.2;;;27.5;65.5
